Time;durP1;ratioP1;P1;durP2;ratioP2;P2;SDS_P1;SDS_P2;PMS_P1;PMS_P2;Temp;Humidity;BMP_temperature;BMP_pressure;BME280_temperature;BME280_humidity;BME280_pressure;Samples;Min_cycle;Max_cycle;Signal;HPM_P1;HPM_P2
2022/12/27 00:01:59;;;;;;;2.65;0.93;;;4.60;99.90;;;;;;5074407;28;20032;-68
2022/12/27 00:04:24;;;;;;;1.45;0.52;;;4.60;99.90;;;;;;5074165;28;20090;-68
2022/12/27 00:06:50;;;;;;;4.38;1.08;;;4.60;99.90;;;;;;5081184;28;20040;-68
2022/12/27 00:09:16;;;;;;;0.98;0.52;;;4.60;99.90;;;;;;5077403;28;20048;-68
2022/12/27 00:11:41;;;;;;;6.50;1.00;;;4.60;99.90;;;;;;5078820;28;20052;-68
2022/12/27 00:14:07;;;;;;;5.43;1.08;;;4.60;99.90;;;;;;5072409;28;20119;-68
2022/12/27 00:16:33;;;;;;;4.15;0.80;;;4.50;99.90;;;;;;5070919;28;20576;-68
2022/12/27 00:18:59;;;;;;;0.85;0.55;;;4.60;99.90;;;;;;5077039;28;20138;-68
2022/12/27 00:21:25;;;;;;;2.40;0.45;;;4.60;99.90;;;;;;5082465;28;20146;-68
2022/12/27 00:23:53;;;;;;;1.45;0.75;;;4.60;99.90;;;;;;5083327;28;20151;-68
2022/12/27 00:26:23;;;;;;;1.02;0.47;;;4.60;99.90;;;;;;5074379;28;20178;-68
2022/12/27 00:28:49;;;;;;;1.40;0.80;;;4.60;99.90;;;;;;5070239;28;20046;-68
2022/12/27 00:31:15;;;;;;;0.43;0.40;;;4.60;99.90;;;;;;5079506;28;20115;-68
2022/12/27 00:33:42;;;;;;;3.30;0.70;;;4.70;99.90;;;;;;5062403;28;20031;-68
2022/12/27 00:36:12;;;;;;;8.48;0.70;;;4.70;99.90;;;;;;5068575;28;20115;-68
2022/12/27 00:38:37;;;;;;;2.72;0.75;;;4.70;99.90;;;;;;5080157;28;20157;-68
2022/12/27 00:41:04;;;;;;;0.73;0.38;;;4.70;99.90;;;;;;5064170;28;20114;-68
2022/12/27 00:43:29;;;;;;;3.78;0.85;;;4.80;99.90;;;;;;5060328;28;20507;-68
2022/12/27 00:45:55;;;;;;;0.63;0.30;;;4.80;99.90;;;;;;5071515;28;20036;-68
2022/12/27 00:48:21;;;;;;;3.25;0.68;;;4.80;99.90;;;;;;5077088;28;20041;-68
2022/12/27 00:50:46;;;;;;;0.95;0.45;;;4.80;99.90;;;;;;5076245;28;20043;-68
2022/12/27 00:53:12;;;;;;;1.02;0.50;;;4.80;99.90;;;;;;5080348;28;20044;-68
2022/12/27 00:55:42;;;;;;;1.45;0.60;;;4.80;99.90;;;;;;5075884;28;20032;-68
2022/12/27 00:58:07;;;;;;;2.05;0.60;;;4.70;99.90;;;;;;5071056;28;20086;-68
2022/12/27 01:00:33;;;;;;;2.17;0.93;;;4.60;99.90;;;;;;5059431;28;20055;-68
2022/12/27 01:02:59;;;;;;;6.45;0.63;;;4.70;99.90;;;;;;5087617;28;20545;-68
2022/12/27 01:05:24;;;;;;;0.60;0.32;;;4.60;99.90;;;;;;5083754;28;20032;-68
2022/12/27 01:07:50;;;;;;;1.88;1.05;;;4.60;99.90;;;;;;5085801;28;20047;-68
2022/12/27 01:10:15;;;;;;;1.10;0.47;;;4.60;99.90;;;;;;5081523;28;20139;-68
2022/12/27 01:12:41;;;;;;;3.83;0.77;;;4.60;99.90;;;;;;5084011;28;20496;-68
2022/12/27 01:15:07;;;;;;;3.65;0.65;;;4.60;99.90;;;;;;5070620;28;20437;-68
2022/12/27 01:17:33;;;;;;;1.05;0.63;;;4.60;99.90;;;;;;5059466;28;20513;-68
2022/12/27 01:19:59;;;;;;;5.25;1.08;;;4.50;99.90;;;;;;5067481;28;20039;-68
2022/12/27 01:22:24;;;;;;;1.67;0.95;;;4.50;99.90;;;;;;5085185;28;20044;-68
2022/12/27 01:24:50;;;;;;;1.30;0.82;;;4.50;99.90;;;;;;5083208;28;20040;-68
2022/12/27 01:27:15;;;;;;;2.72;0.70;;;4.50;99.90;;;;;;5074734;28;20508;-68
2022/12/27 01:29:41;;;;;;;5.53;1.20;;;4.50;99.90;;;;;;5081877;28;20488;-68
2022/12/27 01:32:07;;;;;;;1.25;0.68;;;4.50;99.90;;;;;;5071588;28;20039;-68
2022/12/27 01:34:32;;;;;;;1.98;0.93;;;4.50;99.90;;;;;;5063682;28;20765;-68
2022/12/27 01:36:58;;;;;;;1.95;0.63;;;4.40;99.90;;;;;;5081622;28;20040;-68
2022/12/27 01:39:24;;;;;;;3.22;0.63;;;4.50;99.90;;;;;;5083899;28;20029;-68
2022/12/27 01:44:48;;;;;;;2.05;1.05;;;4.50;99.90;;;;;;5081249;28;20074;-68
2022/12/27 01:47:20;;;;;;;1.95;0.70;;;4.50;99.90;;;;;;5067844;28;20714;-68
2022/12/27 01:49:54;;;;;;;3.35;0.70;;;4.50;99.90;;;;;;5081772;28;20056;-68
2022/12/27 01:52:20;;;;;;;4.93;1.00;;;4.50;99.90;;;;;;5080633;28;20502;-68
2022/12/27 01:54:46;;;;;;;1.80;0.50;;;4.50;99.90;;;;;;5084272;28;20043;-68
2022/12/27 01:57:11;;;;;;;1.25;0.57;;;4.60;99.90;;;;;;5076737;28;20041;-68
2022/12/27 01:59:38;;;;;;;3.47;0.75;;;4.60;99.90;;;;;;5044470;28;20032;-68
2022/12/27 02:02:04;;;;;;;4.07;0.70;;;4.60;99.90;;;;;;5079235;28;20037;-68
2022/12/27 02:04:30;;;;;;;10.40;1.65;;;4.60;99.90;;;;;;5079155;28;20039;-68
2022/12/27 02:06:57;;;;;;;1.67;0.90;;;4.60;99.90;;;;;;5067307;28;20036;-68
2022/12/27 02:09:39;;;;;;;4.18;0.80;;;4.60;99.90;;;;;;5082948;28;20114;-68
2022/12/27 02:12:07;;;;;;;3.22;0.88;;;4.60;99.90;;;;;;5066449;28;20165;-68
2022/12/27 02:14:43;;;;;;;4.13;0.63;;;4.50;99.90;;;;;;5068794;28;20109;-67
2022/12/27 02:17:17;;;;;;;2.42;0.98;;;4.60;99.90;;;;;;5079624;28;20460;-68
2022/12/27 02:19:55;;;;;;;5.10;0.57;;;4.70;99.90;;;;;;5074611;28;20040;-68
2022/12/27 02:25:49;;;;;;;0.90;0.60;;;4.70;99.90;;;;;;5086245;28;20040;-67
2022/12/27 02:28:40;;;;;;;5.78;1.20;;;4.80;99.90;;;;;;5062859;28;20501;-68
2022/12/27 02:31:35;;;;;;;0.90;0.40;;;4.80;99.90;;;;;;5075199;28;20027;-68
2022/12/27 02:34:05;;;;;;;1.25;0.73;;;4.90;99.90;;;;;;5057602;28;20048;-68
2022/12/27 02:36:34;;;;;;;3.55;0.50;;;4.80;99.90;;;;;;5082459;28;20044;-68
2022/12/27 02:39:01;;;;;;;2.72;1.17;;;4.90;99.90;;;;;;5088704;28;20048;-68
2022/12/27 02:53:10;;;;;;;0.40;0.40;;;5.00;99.90;;;;;;5075196;28;20047;-68
2022/12/27 02:59:08;;;;;;;1.25;0.50;;;5.10;99.90;;;;;;5076991;28;20040;-68
2022/12/27 03:05:16;;;;;;;0.68;0.47;;;5.20;99.90;;;;;;5074636;28;20131;-67
2022/12/27 03:08:10;;;;;;;2.22;0.82;;;5.20;99.90;;;;;;5079699;28;20038;-68
2022/12/27 03:16:36;;;;;;;5.45;0.65;;;5.40;99.90;;;;;;5060040;28;20568;-68
2022/12/27 03:33:11;;;;;;;4.05;1.08;;;5.40;99.90;;;;;;5082551;28;20040;-68
2022/12/27 03:33:26;;;;;;;1.10;0.50;;;5.40;99.90;;;;;;5075029;28;20131;-68
2022/12/27 03:39:05;;;;;;;0.88;0.40;;;5.40;99.90;;;;;;5079067;28;20055;-68
2022/12/27 03:44:27;;;;;;;5.20;0.75;;;5.40;99.90;;;;;;5081339;28;20044;-68
2022/12/27 03:46:56;;;;;;;1.55;0.30;;;5.40;99.90;;;;;;5076990;28;20093;-68
2022/12/27 03:49:50;;;;;;;1.13;0.70;;;5.40;99.90;;;;;;5083090;28;20036;-67
2022/12/27 03:52:24;;;;;;;0.75;0.35;;;5.30;99.90;;;;;;5050475;28;20048;-67
2022/12/27 03:54:52;;;;;;;4.10;0.55;;;5.30;99.90;;;;;;5078658;28;20036;-68
2022/12/27 03:57:20;;;;;;;2.95;0.85;;;5.30;99.90;;;;;;5071118;28;20044;-68
2022/12/27 03:59:46;;;;;;;6.03;0.93;;;5.30;99.90;;;;;;5075710;28;20496;-68
2022/12/27 04:02:11;;;;;;;2.13;0.70;;;5.30;99.90;;;;;;5077400;28;20052;-68
2022/12/27 04:04:37;;;;;;;2.97;0.50;;;5.30;99.90;;;;;;5076795;28;20047;-68
2022/12/27 04:07:04;;;;;;;4.78;0.77;;;5.30;99.90;;;;;;5076657;28;20443;-68
2022/12/27 04:36:52;;;;;;;0.75;0.25;;;5.20;99.90;;;;;;5080360;28;20493;-68
2022/12/27 04:39:18;;;;;;;3.80;0.73;;;5.20;99.90;;;;;;5080830;28;20043;-68
2022/12/27 04:55:29;;;;;;;1.58;0.47;;;5.20;99.90;;;;;;5070028;28;20040;-67
2022/12/27 04:57:56;;;;;;;3.78;0.82;;;5.30;99.90;;;;;;5064348;28;20039;-68
2022/12/27 05:03:11;;;;;;;4.38;0.90;;;5.30;99.90;;;;;;5079776;28;20643;-68
2022/12/27 05:05:37;;;;;;;3.75;0.95;;;5.30;99.90;;;;;;5083261;28;20532;-68
2022/12/27 05:16:17;;;;;;;0.40;0.20;;;5.30;99.90;;;;;;5087290;28;20076;-68
2022/12/27 05:18:43;;;;;;;0.98;0.60;;;5.30;99.90;;;;;;5081790;28;20683;-68
2022/12/27 05:21:09;;;;;;;1.42;0.63;;;5.30;99.90;;;;;;5073299;28;20043;-68
2022/12/27 05:26:24;;;;;;;0.75;0.30;;;5.20;99.90;;;;;;5073842;28;20125;-68
2022/12/27 05:28:52;;;;;;;2.40;0.50;;;5.20;99.90;;;;;;5081916;28;20044;-68
2022/12/27 05:31:19;;;;;;;3.97;0.90;;;5.20;99.90;;;;;;5079232;28;20163;-68
2022/12/27 05:33:45;;;;;;;6.53;1.15;;;5.20;99.90;;;;;;5081705;28;20367;-68
2022/12/27 05:36:10;;;;;;;2.28;0.82;;;5.10;99.90;;;;;;5078137;28;20051;-68
2022/12/27 05:38:36;;;;;;;2.50;0.75;;;5.10;99.90;;;;;;5067374;28;20028;-68
2022/12/27 05:41:03;;;;;;;4.07;0.45;;;5.10;99.90;;;;;;5081937;28;20036;-68
2022/12/27 05:43:29;;;;;;;6.85;1.08;;;5.10;99.90;;;;;;5083439;28;20032;-68
2022/12/27 05:45:55;;;;;;;0.45;0.38;;;5.10;99.90;;;;;;5079258;28;20032;-68
2022/12/27 05:48:21;;;;;;;2.47;0.68;;;5.10;99.90;;;;;;5081112;28;20032;-69
2022/12/27 05:50:47;;;;;;;1.02;0.45;;;5.00;99.90;;;;;;5080684;28;20077;-68
2022/12/27 05:53:13;;;;;;;5.60;0.55;;;5.10;99.90;;;;;;5071401;28;20063;-68
2022/12/27 05:55:39;;;;;;;3.07;0.50;;;5.10;99.90;;;;;;5073968;28;20184;-68
2022/12/27 05:58:05;;;;;;;3.85;1.40;;;5.10;99.90;;;;;;5062110;28;20363;-68
2022/12/27 06:00:30;;;;;;;0.57;0.30;;;5.10;99.90;;;;;;5083172;28;20044;-68
2022/12/27 06:02:56;;;;;;;6.22;0.60;;;5.10;99.90;;;;;;5083246;28;20040;-68
2022/12/27 06:05:21;;;;;;;1.75;0.50;;;5.10;99.90;;;;;;5081517;28;20044;-68
2022/12/27 06:07:47;;;;;;;1.48;0.35;;;5.10;99.90;;;;;;5078532;28;20389;-68
2022/12/27 06:10:13;;;;;;;2.63;0.82;;;5.20;99.90;;;;;;5070143;28;20131;-68
2022/12/27 06:12:38;;;;;;;0.88;0.50;;;5.20;99.90;;;;;;5082403;28;20040;-69
2022/12/27 06:15:05;;;;;;;1.23;0.50;;;5.30;99.90;;;;;;5074101;28;20599;-68
2022/12/27 06:17:31;;;;;;;0.80;0.32;;;5.30;99.90;;;;;;5061868;28;20701;-68
2022/12/27 06:19:57;;;;;;;7.70;1.23;;;5.20;99.90;;;;;;5078454;28;20092;-68
2022/12/27 06:22:22;;;;;;;0.28;0.28;;;5.20;99.90;;;;;;5078253;28;20035;-68
2022/12/27 06:24:48;;;;;;;0.73;0.38;;;5.20;99.90;;;;;;5079718;28;20085;-68
2022/12/27 06:27:14;;;;;;;1.05;0.35;;;5.20;99.90;;;;;;5084759;28;20165;-68
2022/12/27 06:29:39;;;;;;;4.15;0.75;;;5.20;99.90;;;;;;5060500;28;20036;-68
2022/12/27 06:32:05;;;;;;;4.07;0.50;;;5.20;99.90;;;;;;5078404;28;20519;-68
2022/12/27 06:34:31;;;;;;;1.55;0.73;;;5.20;99.90;;;;;;5076479;28;20469;-68
2022/12/27 06:36:56;;;;;;;3.03;0.75;;;5.30;99.90;;;;;;5076136;28;20035;-68
2022/12/27 06:39:22;;;;;;;2.00;0.50;;;5.30;99.90;;;;;;5078619;28;20165;-68
2022/12/27 06:41:49;;;;;;;1.88;0.50;;;5.30;99.90;;;;;;5076222;28;20035;-68
2022/12/27 06:44:15;;;;;;;1.88;0.57;;;5.30;99.90;;;;;;5076509;28;20173;-68
2022/12/27 06:46:41;;;;;;;1.08;0.60;;;5.20;99.90;;;;;;5084823;28;20536;-68
2022/12/27 06:49:08;;;;;;;5.22;0.90;;;5.20;99.90;;;;;;5079910;28;20093;-68
2022/12/27 06:51:34;;;;;;;7.57;1.02;;;5.10;99.90;;;;;;5060335;28;20204;-68
2022/12/27 06:53:59;;;;;;;2.50;0.45;;;5.10;99.90;;;;;;5072435;28;20682;-68
2022/12/27 06:56:25;;;;;;;3.83;0.52;;;5.00;99.90;;;;;;5071582;28;20050;-68
2022/12/27 06:58:51;;;;;;;1.38;0.70;;;5.00;99.90;;;;;;5061650;28;20032;-68
2022/12/27 07:01:18;;;;;;;1.52;0.50;;;5.00;99.90;;;;;;5054610;28;20039;-68
2022/12/27 07:03:50;;;;;;;6.80;0.80;;;5.00;99.90;;;;;;5082270;28;20115;-68
2022/12/27 07:06:15;;;;;;;1.90;0.57;;;4.90;99.90;;;;;;5081548;28;20446;-68
2022/12/27 07:08:41;;;;;;;1.90;0.73;;;4.90;99.90;;;;;;5068501;28;20047;-68
2022/12/27 07:11:09;;;;;;;3.10;0.28;;;4.90;99.90;;;;;;5062330;28;20156;-68
2022/12/27 07:13:36;;;;;;;0.77;0.40;;;4.90;99.90;;;;;;5090546;28;20658;-68
2022/12/27 07:16:07;;;;;;;0.50;0.38;;;4.80;99.90;;;;;;5075043;28;20055;-68
2022/12/27 07:18:33;;;;;;;2.28;0.40;;;4.80;99.90;;;;;;5072310;28;20044;-68
2022/12/27 07:21:02;;;;;;;1.05;0.38;;;4.80;99.90;;;;;;5070254;28;20032;-68
2022/12/27 07:23:27;;;;;;;2.53;0.38;;;4.70;99.90;;;;;;5079143;28;20677;-68
2022/12/27 07:25:53;;;;;;;1.52;0.38;;;4.70;99.90;;;;;;5065644;28;20036;-68
2022/12/27 07:28:19;;;;;;;1.42;0.60;;;4.70;99.90;;;;;;5081190;28;20386;-67
2022/12/27 07:30:44;;;;;;;1.13;0.73;;;4.60;99.90;;;;;;5060537;28;20035;-68
2022/12/27 07:33:10;;;;;;;2.35;0.65;;;4.70;99.90;;;;;;5074222;28;20045;-67
2022/12/27 07:35:35;;;;;;;0.85;0.50;;;4.70;99.90;;;;;;5060851;28;20044;-68
2022/12/27 07:38:01;;;;;;;1.95;0.68;;;4.70;99.90;;;;;;5051278;28;20050;-67
2022/12/27 07:40:27;;;;;;;0.50;0.38;;;4.60;99.90;;;;;;5064189;28;20043;-68
2022/12/27 07:42:52;;;;;;;6.97;0.70;;;4.60;99.90;;;;;;5067733;28;20064;-68
2022/12/27 07:45:18;;;;;;;7.95;0.95;;;4.60;99.90;;;;;;5057778;28;20413;-68
2022/12/27 07:47:43;;;;;;;0.82;0.43;;;4.60;99.90;;;;;;5067155;28;20040;-68
2022/12/27 07:50:09;;;;;;;5.55;0.82;;;4.60;99.90;;;;;;5081017;28;20043;-68
2022/12/27 07:52:34;;;;;;;3.22;0.82;;;4.60;99.90;;;;;;5068951;28;20044;-67
2022/12/27 07:55:00;;;;;;;3.60;0.73;;;4.60;99.90;;;;;;5072168;28;20458;-67
2022/12/27 07:57:27;;;;;;;0.98;0.90;;;4.60;99.90;;;;;;5078116;28;20036;-71
2022/12/27 07:59:53;;;;;;;0.57;0.30;;;4.60;99.90;;;;;;5069740;28;20043;-70
2022/12/27 08:02:18;;;;;;;1.33;0.55;;;4.60;99.90;;;;;;5066738;28;20040;-67
2022/12/27 08:04:44;;;;;;;4.85;1.08;;;4.60;99.90;;;;;;5083776;28;20489;-68
2022/12/27 08:07:18;;;;;;;5.90;0.75;;;4.60;99.90;;;;;;5065523;28;20456;-67
2022/12/27 08:09:46;;;;;;;2.00;0.82;;;4.60;99.90;;;;;;5074271;28;20459;-68
2022/12/27 08:12:12;;;;;;;1.13;0.63;;;4.60;99.90;;;;;;5069495;28;20060;-67
2022/12/27 08:14:38;;;;;;;3.58;0.47;;;4.60;99.90;;;;;;5068637;28;20118;-67
2022/12/27 08:17:09;;;;;;;0.38;0.22;;;4.60;99.90;;;;;;5070419;28;20308;-67
2022/12/27 08:19:34;;;;;;;3.78;0.95;;;4.60;99.90;;;;;;5076197;28;20586;-67
2022/12/27 08:22:00;;;;;;;3.63;0.95;;;4.60;99.90;;;;;;5083595;28;20031;-67
2022/12/27 08:24:25;;;;;;;9.13;1.10;;;4.60;99.90;;;;;;5072093;28;20139;-67
2022/12/27 08:26:51;;;;;;;1.20;0.98;;;4.60;99.90;;;;;;5083488;28;20397;-67
2022/12/27 08:29:17;;;;;;;2.20;0.68;;;4.60;99.90;;;;;;5076240;28;20044;-67
2022/12/27 08:31:42;;;;;;;4.35;0.95;;;4.60;99.90;;;;;;5068272;28;20180;-67
2022/12/27 08:34:08;;;;;;;2.83;0.65;;;4.60;99.90;;;;;;5066920;28;20553;-67
2022/12/27 08:36:33;;;;;;;2.58;0.70;;;4.60;99.90;;;;;;5071145;28;20284;-67
2022/12/27 08:38:59;;;;;;;2.65;1.25;;;4.70;99.90;;;;;;5084826;28;20036;-67
2022/12/27 08:41:24;;;;;;;3.40;0.40;;;4.70;99.90;;;;;;5079574;28;20079;-67
2022/12/27 08:43:50;;;;;;;0.50;0.45;;;4.70;99.90;;;;;;5079247;28;20047;-67
2022/12/27 08:46:18;;;;;;;2.05;0.68;;;4.70;99.90;;;;;;5069204;28;20170;-67
2022/12/27 08:48:46;;;;;;;1.75;0.50;;;4.80;99.90;;;;;;5082514;28;20118;-67
2022/12/27 08:51:11;;;;;;;6.15;0.95;;;4.80;99.90;;;;;;5068236;28;20519;-67
2022/12/27 08:53:37;;;;;;;2.58;0.40;;;4.80;99.90;;;;;;5057282;28;20055;-67
2022/12/27 08:56:03;;;;;;;3.67;0.82;;;4.80;99.90;;;;;;5073388;28;20051;-67
2022/12/27 08:58:28;;;;;;;1.55;0.90;;;4.80;99.90;;;;;;5086729;28;20055;-68
2022/12/27 09:00:54;;;;;;;4.50;0.57;;;4.80;99.90;;;;;;5071013;28;20400;-68
2022/12/27 09:03:20;;;;;;;1.05;0.30;;;4.80;99.90;;;;;;5089151;28;22212;-68
2022/12/27 09:05:48;;;;;;;2.20;0.80;;;4.80;99.90;;;;;;5066810;28;20393;-67
2022/12/27 09:08:13;;;;;;;3.15;0.50;;;4.80;99.90;;;;;;5065991;28;20351;-67
2022/12/27 09:10:39;;;;;;;0.98;0.52;;;4.90;99.90;;;;;;5097996;28;20493;-67
2022/12/27 09:13:05;;;;;;;3.05;1.15;;;4.80;99.90;;;;;;5073554;28;20432;-67
2022/12/27 09:15:30;;;;;;;1.00;0.60;;;4.80;99.90;;;;;;5067811;28;20040;-67
2022/12/27 09:17:56;;;;;;;1.35;1.25;;;4.80;99.90;;;;;;5086225;28;20545;-68
2022/12/27 09:20:21;;;;;;;3.08;0.80;;;4.80;99.90;;;;;;5085030;28;20109;-68
2022/12/27 09:22:47;;;;;;;1.50;0.60;;;4.80;99.90;;;;;;5071004;28;20040;-67
2022/12/27 09:25:12;;;;;;;5.40;1.13;;;4.80;99.90;;;;;;5089755;28;20040;-68
2022/12/27 09:27:38;;;;;;;6.30;1.02;;;4.80;99.90;;;;;;5089907;28;20035;-68
2022/12/27 09:30:06;;;;;;;12.20;1.00;;;4.80;99.90;;;;;;5084366;28;20068;-68
2022/12/27 09:32:32;;;;;;;2.25;0.70;;;4.80;99.90;;;;;;5070187;28;20043;-68
2022/12/27 09:34:58;;;;;;;2.80;0.65;;;4.90;99.90;;;;;;5085420;28;20032;-68
2022/12/27 09:37:24;;;;;;;0.90;0.65;;;4.90;99.90;;;;;;5082185;28;20047;-67
2022/12/27 09:39:50;;;;;;;14.73;1.25;;;5.00;99.90;;;;;;5062166;28;20119;-68
2022/12/27 09:42:34;;;;;;;2.47;0.80;;;5.00;99.90;;;;;;5070940;28;20481;-68
2022/12/27 09:45:31;;;;;;;8.45;0.82;;;5.00;99.90;;;;;;5084423;28;20036;-68
2022/12/27 09:48:09;;;;;;;9.73;1.20;;;5.00;99.90;;;;;;5065543;28;20665;-68
2022/12/27 09:50:47;;;;;;;3.30;0.50;;;5.20;99.90;;;;;;5047304;28;20120;-68
2022/12/27 09:53:25;;;;;;;1.48;1.15;;;5.20;99.90;;;;;;5082779;28;20040;-68
2022/12/27 09:55:54;;;;;;;1.30;0.50;;;5.20;99.90;;;;;;5082520;28;20037;-68
2022/12/27 09:58:34;;;;;;;1.65;0.90;;;5.30;99.90;;;;;;5083016;28;20498;-68
2022/12/27 10:01:01;;;;;;;1.75;0.88;;;5.30;99.90;;;;;;5066904;28;20480;-68
2022/12/27 10:03:28;;;;;;;1.45;0.50;;;5.30;99.90;;;;;;5069705;28;20063;-69
2022/12/27 10:06:20;;;;;;;1.55;0.70;;;5.30;99.90;;;;;;5074257;28;20122;-68
2022/12/27 10:09:17;;;;;;;3.03;1.00;;;5.40;99.90;;;;;;5079788;28;20089;-68
2022/12/27 10:11:49;;;;;;;;;;;5.40;99.90;;;;;;5074055;28;20048;-68
2022/12/27 10:14:31;;;;;;;5.20;1.17;;;5.40;99.90;;;;;;5077143;28;20397;-69
2022/12/27 10:17:30;;;;;;;1.42;0.60;;;5.50;99.90;;;;;;5066065;28;20041;-69
2022/12/27 10:20:20;;;;;;;2.25;0.93;;;5.50;99.90;;;;;;5084739;28;20259;-73
2022/12/27 10:22:57;;;;;;;2.05;0.95;;;5.50;99.90;;;;;;5067593;28;20032;-71
2022/12/27 10:25:24;;;;;;;0.95;0.47;;;5.60;99.90;;;;;;5071727;28;20500;-73
2022/12/27 10:28:00;;;;;;;0.90;0.50;;;5.60;99.90;;;;;;5060360;28;20032;-68
2022/12/27 10:30:29;;;;;;;3.85;0.77;;;5.70;99.90;;;;;;5069826;28;20044;-68
2022/12/27 10:32:55;;;;;;;4.32;0.98;;;5.70;99.90;;;;;;5069433;28;20047;-67
2022/12/27 10:35:23;;;;;;;0.93;0.52;;;5.70;99.90;;;;;;5068030;28;20081;-68
2022/12/27 10:37:49;;;;;;;2.05;0.95;;;5.70;99.90;;;;;;5068847;28;20040;-68
2022/12/27 10:40:34;;;;;;;6.32;0.93;;;5.80;99.90;;;;;;5073255;28;20160;-68
2022/12/27 10:43:03;;;;;;;4.70;1.20;;;5.80;99.90;;;;;;5060877;28;20085;-68
2022/12/27 10:45:37;;;;;;;1.80;0.80;;;5.90;99.90;;;;;;5065607;28;20341;-68
2022/12/27 10:48:25;;;;;;;4.07;1.08;;;5.90;99.90;;;;;;5074407;28;20122;-68
2022/12/27 10:51:08;;;;;;;2.38;0.65;;;6.00;99.90;;;;;;5087822;28;20428;-68
2022/12/27 10:53:45;;;;;;;1.55;0.68;;;6.00;99.90;;;;;;5072992;28;20043;-68
2022/12/27 10:56:19;;;;;;;2.33;0.85;;;6.10;99.90;;;;;;5071568;28;20036;-67
2022/12/27 10:58:47;;;;;;;0.75;0.65;;;6.00;99.90;;;;;;5079196;28;20713;-68
2022/12/27 11:01:23;;;;;;;2.13;0.70;;;6.10;99.90;;;;;;5051072;28;20036;-67
2022/12/27 11:05:33;;;;;;;2.33;0.63;;;6.10;99.90;;;;;;5105034;27;20122;-67
2022/12/27 11:08:00;;;;;;;2.55;0.75;;;6.10;99.90;;;;;;5110898;27;20032;-67
2022/12/27 11:10:33;;;;;;;1.02;0.65;;;6.10;99.90;;;;;;5106200;27;20063;-67
2022/12/27 11:13:03;;;;;;;1.35;0.73;;;6.10;99.90;;;;;;5108670;27;20036;-67
2022/12/27 11:15:41;;;;;;;4.80;0.85;;;6.10;99.90;;;;;;5110775;27;20532;-67
2022/12/27 11:18:25;;;;;;;1.20;0.75;;;6.00;99.90;;;;;;5108840;27;20493;-67
2022/12/27 11:20:58;;;;;;;7.10;0.75;;;6.10;99.90;;;;;;5111728;27;20081;-67
2022/12/27 11:23:35;;;;;;;2.13;0.77;;;6.10;99.90;;;;;;5106260;27;20035;-67
2022/12/27 11:26:05;;;;;;;0.85;0.65;;;6.20;99.90;;;;;;5091286;27;20040;-67
2022/12/27 11:28:41;;;;;;;1.52;0.70;;;6.20;99.90;;;;;;5135297;27;20055;-67
2022/12/27 11:31:11;;;;;;;3.05;0.88;;;6.20;99.90;;;;;;5092013;27;20045;-67
2022/12/27 11:33:47;;;;;;;2.75;0.75;;;6.20;99.90;;;;;;5104304;27;20040;-67
2022/12/27 11:36:22;;;;;;;1.98;0.55;;;6.30;99.90;;;;;;5113853;27;20531;-66
2022/12/27 11:38:49;;;;;;;2.55;0.63;;;6.30;99.90;;;;;;5105059;27;20035;-67
2022/12/27 11:41:15;;;;;;;1.67;0.82;;;6.40;99.90;;;;;;5110300;27;20051;-67
2022/12/27 11:43:59;;;;;;;5.75;0.93;;;6.40;99.90;;;;;;5103872;27;20040;-67
2022/12/27 11:46:37;;;;;;;1.55;0.73;;;6.40;99.90;;;;;;5108075;27;20038;-67
2022/12/27 11:49:06;;;;;;;3.28;0.70;;;6.50;99.90;;;;;;5110667;27;20042;-68
2022/12/27 11:51:54;;;;;;;8.18;1.17;;;6.50;99.90;;;;;;5105290;27;20032;-67
2022/12/27 11:54:35;;;;;;;1.98;0.38;;;6.50;99.90;;;;;;5100494;28;20092;-68
2022/12/27 11:57:13;;;;;;;1.75;0.65;;;6.50;99.90;;;;;;5107445;27;20122;-67
2022/12/27 11:59:51;;;;;;;1.42;0.75;;;6.50;99.90;;;;;;5102628;27;20047;-68
2022/12/27 12:02:40;;;;;;;1.08;0.50;;;6.40;99.90;;;;;;5138591;27;20731;-71
2022/12/27 12:05:40;;;;;;;10.35;4.35;;;6.40;99.90;;;;;;5107423;27;20048;-67
2022/12/27 12:08:31;;;;;;;8.25;2.42;;;6.50;99.90;;;;;;5104216;27;20032;-67
2022/12/27 12:11:29;;;;;;;1.90;1.20;;;6.50;99.90;;;;;;5105513;27;20501;-67
2022/12/27 12:14:10;;;;;;;5.80;1.95;;;6.50;99.90;;;;;;5108657;27;20396;-67
2022/12/27 12:16:57;;;;;;;3.03;1.73;;;6.50;99.90;;;;;;5088261;27;20036;-68
2022/12/27 12:19:50;;;;;;;12.55;5.55;;;6.60;99.90;;;;;;5092601;27;20497;-68
2022/12/27 12:22:39;;;;;;;12.73;5.25;;;6.60;99.90;;;;;;5087535;27;20466;-67
2022/12/27 12:25:19;;;;;;;32.75;14.07;;;6.60;99.90;;;;;;5093141;28;20206;-66
2022/12/27 12:28:04;;;;;;;14.30;6.72;;;6.60;99.90;;;;;;5091677;27;20046;-67
2022/12/27 12:31:20;;;;;;;16.45;6.43;;;6.50;99.90;;;;;;5090251;27;20047;-67
2022/12/27 12:34:14;;;;;;;4.82;2.13;;;6.50;99.90;;;;;;5073546;28;20534;-68
2022/12/27 12:36:47;;;;;;;5.80;3.35;;;6.50;99.90;;;;;;5088259;27;20040;-68
2022/12/27 12:39:15;;;;;;;7.05;3.13;;;6.50;99.90;;;;;;5091632;27;20066;-68
2022/12/27 12:42:21;;;;;;;20.50;7.97;;;6.40;99.90;;;;;;5088603;27;20047;-68
2022/12/27 12:44:46;;;;;;;15.90;6.03;;;6.50;99.90;;;;;;5091209;27;20078;-68
2022/12/27 12:47:37;;;;;;;21.00;5.88;;;6.50;99.90;;;;;;5072147;27;20135;-68
2022/12/27 12:50:22;;;;;;;9.98;6.45;;;6.50;99.90;;;;;;5118476;27;20031;-68
2022/12/27 12:53:23;;;;;;;13.35;6.50;;;6.50;99.90;;;;;;5074439;28;20070;-68
2022/12/27 12:56:13;;;;;;;4.53;1.85;;;6.50;99.90;;;;;;5089597;27;20044;-67
2022/12/27 12:59:10;;;;;;;2.60;1.27;;;6.50;99.90;;;;;;5090772;27;20039;-68
2022/12/27 13:01:51;;;;;;;4.07;1.77;;;6.60;99.90;;;;;;5093193;28;20487;-67
2022/12/27 13:05:04;;;;;;;2.53;1.00;;;6.60;99.90;;;;;;5090024;27;20569;-67
2022/12/27 13:07:53;;;;;;;3.00;1.15;;;6.60;99.90;;;;;;5011284;27;20075;-68
2022/12/27 13:10:44;;;;;;;5.80;1.38;;;6.60;99.90;;;;;;5127459;27;20040;-68
2022/12/27 13:13:48;;;;;;;4.38;0.90;;;6.70;99.90;;;;;;5077644;28;20036;-67
2022/12/27 13:16:43;;;;;;;1.80;0.75;;;6.80;99.90;;;;;;5093525;27;20044;-68
2022/12/27 13:19:41;;;;;;;2.53;1.17;;;6.80;99.90;;;;;;5091894;27;20032;-67
2022/12/27 13:22:07;;;;;;;1.08;0.75;;;6.90;99.90;;;;;;5080249;27;20101;-68
2022/12/27 13:25:10;;;;;;;1.58;0.80;;;6.90;99.90;;;;;;5092600;27;20039;-68
2022/12/27 13:28:14;;;;;;;2.70;1.00;;;6.90;99.90;;;;;;5095559;28;20579;-67
2022/12/27 13:31:11;;;;;;;3.45;1.52;;;6.90;99.90;;;;;;5094996;27;20036;-68
2022/12/27 13:33:36;;;;;;;;;;;6.90;99.90;;;;;;5090196;27;20091;-68
2022/12/27 13:36:07;;;;;;;6.37;1.80;;;6.90;99.90;;;;;;5096906;27;19920;-68
2022/12/27 13:38:39;;;;;;;4.13;1.55;;;6.80;99.90;;;;;;5077287;28;20297;-68
2022/12/27 13:41:23;;;;;;;9.27;1.60;;;6.80;99.90;;;;;;5094018;27;20039;-68
2022/12/27 13:44:10;;;;;;;1.52;1.17;;;6.80;99.90;;;;;;5108937;27;20040;-68
2022/12/27 13:47:07;;;;;;;1.90;1.30;;;6.80;99.90;;;;;;5092666;27;20036;-68
2022/12/27 13:50:11;;;;;;;2.63;1.70;;;6.90;99.90;;;;;;5078701;27;20042;-68
2022/12/27 13:52:54;;;;;;;4.10;1.90;;;6.80;99.90;;;;;;5095781;28;20503;-68
2022/12/27 13:55:52;;;;;;;6.50;2.10;;;6.80;99.90;;;;;;5092120;27;20052;-67
2022/12/27 13:58:36;;;;;;;6.22;2.70;;;6.80;99.90;;;;;;5091991;28;20047;-68
2022/12/27 14:01:27;;;;;;;3.28;1.48;;;6.90;99.90;;;;;;5073978;27;20130;-68
2022/12/27 14:04:30;;;;;;;5.53;3.03;;;6.80;99.90;;;;;;5128566;27;20093;-68
2022/12/27 14:07:08;;;;;;;4.05;2.53;;;6.80;99.90;;;;;;5082118;28;20520;-68
2022/12/27 14:09:52;;;;;;;6.18;3.08;;;6.80;99.90;;;;;;5098147;27;20036;-68
2022/12/27 14:12:56;;;;;;;4.55;3.03;;;6.80;99.90;;;;;;5095949;27;20039;-68
2022/12/27 14:15:41;;;;;;;5.65;3.53;;;6.80;99.90;;;;;;5048456;27;20056;-68
2022/12/27 14:18:32;;;;;;;5.72;4.25;;;6.80;99.90;;;;;;5080656;27;20881;-68
2022/12/27 14:21:10;;;;;;;6.30;3.15;;;6.80;99.90;;;;;;5094873;28;20047;-68
2022/12/27 14:23:54;;;;;;;6.32;2.25;;;6.70;99.90;;;;;;5090410;27;20043;-68
2022/12/27 14:26:39;;;;;;;8.30;4.30;;;6.70;99.90;;;;;;5090300;27;20120;-69
2022/12/27 14:29:23;;;;;;;6.13;3.63;;;6.70;99.90;;;;;;5093177;27;20040;-68
2022/12/27 14:32:32;;;;;;;5.57;3.60;;;6.70;99.90;;;;;;5093289;27;20059;-68
2022/12/27 14:35:23;;;;;;;6.63;3.65;;;6.70;99.90;;;;;;5094497;28;20043;-68
2022/12/27 14:38:01;;;;;;;6.45;3.08;;;6.70;99.90;;;;;;5093961;27;20067;-68
2022/12/27 14:40:51;;;;;;;9.68;3.55;;;6.70;99.90;;;;;;5096349;27;20043;-68
2022/12/27 14:43:35;;;;;;;5.40;3.35;;;6.70;99.90;;;;;;5093254;28;20460;-68
2022/12/27 14:46:09;;;;;;;4.63;2.72;;;6.70;99.90;;;;;;5111942;27;20040;-68
2022/12/27 14:48:56;;;;;;;5.45;2.83;;;6.70;99.90;;;;;;5091237;27;20040;-68
2022/12/27 14:52:14;;;;;;;5.10;3.75;;;6.60;99.90;;;;;;5091020;27;20047;-68
2022/12/27 14:54:42;;;;;;;;;;;6.70;99.90;;;;;;5024246;28;20040;-68
2022/12/27 14:57:30;;;;;;;10.13;7.15;;;6.60;99.90;;;;;;5034223;28;19917;-68
2022/12/27 15:00:03;;;;;;;7.68;3.17;;;6.60;99.90;;;;;;5071790;28;20119;-68
2022/12/27 15:02:32;;;;;;;7.53;4.15;;;6.60;99.90;;;;;;5098705;28;20040;-68
2022/12/27 15:05:18;;;;;;;6.82;3.05;;;6.60;99.90;;;;;;5105108;28;20062;-68
2022/12/27 15:08:04;;;;;;;7.22;4.28;;;6.50;99.90;;;;;;5088237;28;20104;-68
2022/12/27 15:11:08;;;;;;;10.73;4.63;;;6.50;99.90;;;;;;5089540;28;20486;-68
2022/12/27 15:14:06;;;;;;;4.93;2.67;;;6.50;99.90;;;;;;5088131;28;20478;-68
2022/12/27 15:17:16;;;;;;;5.68;3.42;;;6.40;99.90;;;;;;5088868;28;20064;-68